Hampshire, Illinois
Current Conditions -  °F | °C
As of 12:55 AM on Thursday 23 Oct 2014 (Local Time) from KDKB Reporting Station
Clear Clear  
Wind Chill: 31°   Ceiling: Unl
Heat Index: 36°   Visibility: 10mi
Dew Point: 33°   Wind: 6mph
Humidity: 90%   Direction: 130°SE
Pressure: 30.24"   Gusts: NA
Location:  42.1°N, 88.53°W
Report Text: KDKB 230555Z AUTO 13005KT 10SM CLR 02/01 A3024 RMK AO2 T00230008 10079 20021 401331005
Loading
Personal Weather Stations






























Interactive Weather Map
Tropical Storm Tracking
New forecast layout! Learn more

10-Day Weather Forecast

Advertisements
Track Severe Weather on mobile